createdAt,value
2019-05-05T00:01:19.682Z,6.80
2019-05-05T00:03:51.806Z,7.37
2019-05-05T00:06:22.294Z,7.40
2019-05-05T00:08:54.739Z,8.00
2019-05-05T00:11:38.902Z,7.13
2019-05-05T00:14:27.390Z,7.37
2019-05-05T00:16:59.566Z,7.30
2019-05-05T00:19:33.242Z,8.60
2019-05-05T00:22:04.424Z,8.87
2019-05-05T00:24:35.081Z,8.00
2019-05-05T00:27:05.861Z,8.13
2019-05-05T00:29:36.340Z,8.10
2019-05-05T00:32:06.883Z,7.70
2019-05-05T00:34:37.446Z,7.30
2019-05-05T00:37:07.919Z,8.77
2019-05-05T00:39:38.485Z,7.73
2019-05-05T00:42:09.312Z,7.97
2019-05-05T00:44:39.843Z,8.47
2019-05-05T00:47:14.594Z,8.40
2019-05-05T00:49:49.295Z,8.13
2019-05-05T00:52:18.986Z,8.40
2019-05-05T00:54:49.464Z,8.60
2019-05-05T00:57:19.962Z,8.90
2019-05-05T00:59:50.428Z,7.03
2019-05-05T01:02:26.789Z,7.80
2019-05-05T01:05:01.830Z,8.13
2019-05-05T01:07:32.291Z,7.30
2019-05-05T01:10:04.848Z,7.20
2019-05-05T01:12:35.121Z,6.80
2019-05-05T01:15:07.006Z,7.43
2019-05-05T01:17:37.466Z,7.97
2019-05-05T01:20:08.166Z,7.27
2019-05-05T01:22:38.725Z,7.30
2019-05-05T01:25:09.951Z,7.57
2019-05-05T01:27:40.583Z,7.90
2019-05-05T01:30:15.422Z,7.30
2019-05-05T01:33:05.655Z,7.33
2019-05-05T01:35:36.201Z,8.33
2019-05-05T01:38:10.912Z,7.30
2019-05-05T01:40:44.687Z,6.80
2019-05-05T01:43:15.235Z,6.37
2019-05-05T01:45:46.363Z,6.03
2019-05-05T01:48:16.819Z,6.40
2019-05-05T01:50:47.322Z,6.40
2019-05-05T01:53:17.780Z,6.40
2019-05-05T01:55:48.565Z,5.60
2019-05-05T01:58:19.003Z,6.03
2019-05-05T02:00:49.578Z,6.53
2019-05-05T02:03:20.200Z,6.07
2019-05-05T02:05:50.645Z,6.07
2019-05-05T02:08:21.132Z,6.60
2019-05-05T02:10:54.795Z,5.90
2019-05-05T02:13:25.603Z,6.50
2019-05-05T02:15:56.062Z,6.27
2019-05-05T02:18:26.672Z,6.93
2019-05-05T02:21:04.968Z,6.03
2019-05-05T02:23:36.811Z,6.10
2019-05-05T02:26:08.543Z,5.47
2019-05-05T02:28:49.887Z,6.73
2019-05-05T02:31:25.515Z,5.83
2019-05-05T02:33:57.045Z,6.07
2019-05-05T02:36:27.723Z,5.97
2019-05-05T02:38:58.253Z,8.47
2019-05-05T02:41:30.102Z,8.90
2019-05-05T02:44:00.915Z,8.10
2019-05-05T02:46:36.306Z,9.10
2019-05-05T02:49:07.534Z,9.77
2019-05-05T02:51:39.334Z,9.73
2019-05-05T02:54:09.884Z,10.20
2019-05-05T02:56:49.044Z,9.90
2019-05-05T02:59:25.220Z,10.87
2019-05-05T03:01:58.675Z,10.90
2019-05-05T03:04:29.900Z,11.20
2019-05-05T03:07:04.742Z,10.73
2019-05-05T03:09:36.079Z,9.43
2019-05-05T03:12:06.765Z,10.63
2019-05-05T03:14:38.797Z,9.20
2019-05-05T03:17:14.286Z,10.57
2019-05-05T03:19:45.164Z,10.33
2019-05-05T03:22:16.495Z,10.13
2019-05-05T03:24:47.621Z,10.77
2019-05-05T03:27:18.148Z,10.60
2019-05-05T03:29:48.710Z,9.50
2019-05-05T03:32:20.425Z,10.87
2019-05-05T03:34:51.274Z,10.97
2019-05-05T03:37:21.768Z,10.90
2019-05-05T03:39:54.601Z,11.27
2019-05-05T03:42:26.878Z,11.00
2019-05-05T03:44:59.077Z,13.77
2019-05-05T03:47:29.606Z,13.60
2019-05-05T03:50:00.329Z,12.17
2019-05-05T03:52:30.983Z,13.70
2019-05-05T03:55:03.665Z,14.50
2019-05-05T03:57:34.399Z,11.80
2019-05-05T04:00:07.840Z,12.73
2019-05-05T04:02:39.974Z,12.37
2019-05-05T04:05:29.060Z,12.53
2019-05-05T04:07:59.975Z,12.37
2019-05-05T04:10:30.506Z,14.73
2019-05-05T04:13:04.638Z,12.17
2019-05-05T04:15:38.557Z,14.80
2019-05-05T04:18:14.599Z,10.57
2019-05-05T04:20:45.411Z,9.60
2019-05-05T04:23:15.872Z,10.07
2019-05-05T04:25:46.369Z,9.93
2019-05-05T04:28:16.822Z,9.70
2019-05-05T04:30:47.304Z,9.27
2019-05-05T04:33:17.832Z,9.13
2019-05-05T04:35:48.357Z,9.13
2019-05-05T04:38:19.471Z,8.73
2019-05-05T04:40:49.959Z,9.30
2019-05-05T04:43:21.948Z,8.80
2019-05-05T04:45:54.148Z,8.53
2019-05-05T04:48:26.385Z,8.40
2019-05-05T04:51:01.158Z,9.57
2019-05-05T04:53:39.054Z,8.57
2019-05-05T04:56:09.517Z,8.07
2019-05-05T04:58:39.975Z,8.30
2019-05-05T05:01:10.468Z,8.20
2019-05-05T05:03:45.014Z,9.33
2019-05-05T05:06:17.203Z,8.63
2019-05-05T05:08:47.688Z,8.20
2019-05-05T05:11:18.138Z,8.00
2019-05-05T05:13:48.763Z,7.10
2019-05-05T05:16:19.224Z,8.97
2019-05-05T05:18:49.726Z,8.27
2019-05-05T05:21:20.178Z,8.20
2019-05-05T05:23:50.687Z,7.93
2019-05-05T05:26:21.151Z,9.37
2019-05-05T05:28:53.379Z,8.60
2019-05-05T05:31:24.484Z,8.07
2019-05-05T05:33:55.126Z,7.80
2019-05-05T05:36:25.612Z,7.73
2019-05-05T05:38:57.743Z,7.77
2019-05-05T05:41:43.703Z,7.47
2019-05-05T05:44:19.836Z,8.27
2019-05-05T05:46:54.681Z,9.80
2019-05-05T05:49:26.382Z,9.60
2019-05-05T05:51:56.875Z,9.20
2019-05-05T05:54:28.451Z,8.90
2019-05-05T05:56:58.968Z,10.13
2019-05-05T05:59:31.100Z,9.30
2019-05-05T06:02:09.919Z,9.30
2019-05-05T06:04:34.337Z,9.00
2019-05-05T06:07:05.033Z,9.80
2019-05-05T06:09:39.727Z,9.93
2019-05-05T06:12:10.797Z,8.23
2019-05-05T06:14:44.761Z,8.67
2019-05-05T06:17:15.413Z,9.10
2019-05-05T06:19:45.894Z,9.30
2019-05-05T06:22:28.110Z,9.57
2019-05-05T06:24:54.497Z,10.00
2019-05-05T06:27:25.002Z,11.00
2019-05-05T06:29:55.477Z,9.07
2019-05-05T06:32:26.449Z,8.30
2019-05-05T06:34:56.940Z,10.00
2019-05-05T06:37:27.432Z,8.00
2019-05-05T06:39:59.620Z,7.50
2019-05-05T06:42:31.750Z,5.20
2019-05-05T06:45:14.378Z,5.73
2019-05-05T06:47:44.866Z,5.40
2019-05-05T06:50:15.450Z,5.67
2019-05-05T06:52:47.187Z,5.70
2019-05-05T06:55:17.706Z,5.23
2019-05-05T06:57:48.210Z,4.80
2019-05-05T07:00:18.816Z,5.50
2019-05-05T07:02:49.343Z,4.00
2019-05-05T07:05:19.817Z,4.20
2019-05-05T07:07:50.310Z,3.70
2019-05-05T07:10:20.776Z,3.53
2019-05-05T07:12:51.275Z,3.00
2019-05-05T07:15:23.721Z,3.07
2019-05-05T07:17:54.029Z,2.60
2019-05-05T07:20:24.642Z,3.10
2019-05-05T07:23:01.330Z,3.20
2019-05-05T07:25:39.863Z,2.40
2019-05-05T07:27:59.635Z,3.00
2019-05-05T07:30:30.158Z,2.73
2019-05-05T07:33:00.642Z,1.93
2019-05-05T07:35:55.350Z,2.13
2019-05-05T07:38:17.177Z,1.80
2019-05-05T07:40:47.703Z,2.20
2019-05-05T07:43:18.198Z,2.20
2019-05-05T07:45:48.655Z,1.50
2019-05-05T07:48:19.150Z,1.50
2019-05-05T07:51:01.181Z,1.93
2019-05-05T07:53:24.320Z,1.53
2019-05-05T07:55:54.533Z,1.90
2019-05-05T07:58:25.023Z,2.40
2019-05-05T08:00:55.517Z,1.50
2019-05-05T08:03:25.978Z,2.07
2019-05-05T08:05:56.548Z,1.30
2019-05-05T08:08:27.004Z,1.77
2019-05-05T08:10:57.492Z,1.80
2019-05-05T08:13:27.960Z,1.63
2019-05-05T08:16:00.643Z,1.20
2019-05-05T08:18:34.601Z,1.90
2019-05-05T08:21:06.834Z,1.67
2019-05-05T08:23:38.967Z,2.27
2019-05-05T08:26:09.210Z,8.70
2019-05-05T08:28:50.431Z,7.77
2019-05-05T08:31:28.083Z,7.37
2019-05-05T08:33:58.553Z,9.30
2019-05-05T08:36:29.054Z,11.63
2019-05-05T08:38:59.515Z,10.57
2019-05-05T08:41:30.013Z,7.20
2019-05-05T08:44:00.481Z,10.67
2019-05-05T08:46:30.978Z,3.70
2019-05-05T08:49:01.511Z,1.53
2019-05-05T08:51:33.840Z,1.10
2019-05-05T08:54:04.164Z,1.57
2019-05-05T08:56:34.644Z,1.67
2019-05-05T08:59:05.177Z,1.60
2019-05-05T09:01:35.673Z,2.10
2019-05-05T09:04:06.133Z,1.33
2019-05-05T09:06:37.807Z,1.97
2019-05-05T09:09:09.013Z,1.50
2019-05-05T09:11:39.513Z,1.93
2019-05-05T09:14:10.558Z,1.30
2019-05-05T09:16:41.049Z,1.73
2019-05-05T09:19:18.935Z,1.33
2019-05-05T09:21:49.414Z,1.60
2019-05-05T09:24:25.260Z,1.47
2019-05-05T09:27:14.177Z,1.83
2019-05-05T09:29:46.125Z,1.40
2019-05-05T09:32:16.613Z,1.20
2019-05-05T09:34:47.068Z,1.33
2019-05-05T09:37:17.552Z,1.70
2019-05-05T09:39:48.084Z,1.70
2019-05-05T09:42:18.582Z,6.17
2019-05-05T09:44:49.043Z,2.37
2019-05-05T09:47:19.611Z,1.47
2019-05-05T09:49:50.062Z,2.00
2019-05-05T09:52:20.563Z,1.40
2019-05-05T09:54:51.022Z,1.60
2019-05-05T09:57:23.534Z,1.67
2019-05-05T09:59:55.323Z,1.83
2019-05-05T10:02:26.696Z,1.37
2019-05-05T10:04:57.129Z,1.80
2019-05-05T10:07:27.620Z,1.70
2019-05-05T10:09:58.124Z,1.70
2019-05-05T10:12:28.708Z,1.83
2019-05-05T10:14:59.188Z,2.20
2019-05-05T10:17:29.644Z,2.17
2019-05-05T10:20:00.126Z,2.50
2019-05-05T10:22:30.587Z,1.50
2019-05-05T10:25:18.732Z,2.10
2019-05-05T10:27:49.368Z,1.60
2019-05-05T10:30:20.271Z,1.80
2019-05-05T10:32:50.782Z,1.40
2019-05-05T10:35:21.310Z,1.80
2019-05-05T10:37:51.859Z,1.90
2019-05-05T10:40:24.123Z,1.90
2019-05-05T10:42:54.580Z,2.00
2019-05-05T10:45:25.505Z,2.40
2019-05-05T10:47:56.024Z,2.27
2019-05-05T10:50:26.503Z,2.10
2019-05-05T10:52:57.068Z,2.07
2019-05-05T10:55:27.635Z,2.10
2019-05-05T10:57:58.195Z,1.80
2019-05-05T11:00:48.286Z,2.37
2019-05-05T11:03:18.870Z,2.27
2019-05-05T11:05:49.318Z,2.10
2019-05-05T11:08:20.256Z,2.10
2019-05-05T11:10:50.746Z,2.00
2019-05-05T11:13:21.200Z,2.10
2019-05-05T11:15:51.704Z,2.03
2019-05-05T11:18:23.782Z,2.03
2019-05-05T11:20:54.938Z,1.83
2019-05-05T11:23:25.591Z,1.93
2019-05-05T11:25:56.110Z,2.00
2019-05-05T11:28:26.613Z,8.30
2019-05-05T11:30:57.077Z,2.07
2019-05-05T11:33:34.276Z,1.90
2019-05-05T11:36:06.763Z,1.80
2019-05-05T11:38:37.252Z,1.83
2019-05-05T11:41:07.709Z,1.67
2019-05-05T11:43:38.208Z,1.60
2019-05-05T11:46:08.777Z,1.87
2019-05-05T11:48:39.271Z,1.97
2019-05-05T11:51:09.718Z,1.97
2019-05-05T11:53:40.208Z,1.73
2019-05-05T11:56:10.667Z,1.93
2019-05-05T11:58:41.175Z,1.87
2019-05-05T12:01:13.705Z,2.10
2019-05-05T12:03:44.382Z,1.70
2019-05-05T12:06:15.095Z,1.60
2019-05-05T12:08:46.030Z,1.80
2019-05-05T12:11:16.836Z,1.53
2019-05-05T12:13:47.382Z,1.90
2019-05-05T12:16:19.508Z,1.40
2019-05-05T12:18:49.966Z,4.10
2019-05-05T12:21:20.472Z,2.40
2019-05-05T12:23:50.930Z,2.13
2019-05-05T12:26:30.059Z,10.40
2019-05-05T12:29:02.173Z,7.40
2019-05-05T12:31:34.299Z,1.90
2019-05-05T12:34:04.839Z,1.60
2019-05-05T12:36:35.306Z,1.33
2019-05-05T12:39:09.399Z,1.50
2019-05-05T12:41:39.900Z,1.50
2019-05-05T12:44:14.170Z,1.70
2019-05-05T12:46:45.818Z,1.50
2019-05-05T12:49:16.267Z,1.33
2019-05-05T12:51:46.809Z,1.53
2019-05-05T12:54:17.302Z,1.67
2019-05-05T12:56:47.751Z,1.63
2019-05-05T12:59:22.350Z,1.80
2019-05-05T13:01:54.693Z,1.37
2019-05-05T13:04:25.112Z,1.53
2019-05-05T13:06:55.605Z,1.73
2019-05-05T13:09:26.619Z,1.40
2019-05-05T13:11:57.070Z,1.53
2019-05-05T13:14:27.618Z,1.50
2019-05-05T13:16:58.085Z,1.40
2019-05-05T13:19:46.468Z,1.60
2019-05-05T13:22:27.457Z,1.80
2019-05-05T13:25:04.488Z,1.57
2019-05-05T13:27:36.364Z,1.67
2019-05-05T13:30:10.288Z,1.73
2019-05-05T13:32:40.737Z,1.53
2019-05-05T13:35:11.454Z,1.70
2019-05-05T13:37:41.902Z,1.87
2019-05-05T13:40:12.784Z,1.50
2019-05-05T13:42:44.970Z,1.63
2019-05-05T13:45:19.210Z,2.27
2019-05-05T13:47:49.691Z,2.73
2019-05-05T13:50:25.039Z,1.67
2019-05-05T13:52:55.492Z,1.70
2019-05-05T13:55:25.983Z,1.90
2019-05-05T13:57:56.437Z,2.10
2019-05-05T14:00:27.082Z,2.07
2019-05-05T14:02:57.594Z,2.90
2019-05-05T14:05:28.071Z,1.50
2019-05-05T14:07:58.525Z,1.67
2019-05-05T14:10:29.065Z,1.73
2019-05-05T14:12:59.555Z,2.40
2019-05-05T14:15:30.026Z,1.70
2019-05-05T14:18:00.473Z,1.77
2019-05-05T14:20:31.033Z,1.60
2019-05-05T14:23:03.722Z,1.53
2019-05-05T14:25:34.131Z,1.60
2019-05-05T14:28:04.819Z,1.87
2019-05-05T14:30:37.009Z,1.60
2019-05-05T14:33:09.314Z,15.50
2019-05-05T14:35:39.564Z,1.53
2019-05-05T14:38:11.653Z,2.07
2019-05-05T14:40:44.497Z,1.87
2019-05-05T14:43:16.785Z,1.67
2019-05-05T14:45:46.465Z,1.60
2019-05-05T14:48:16.908Z,1.67
2019-05-05T14:50:47.405Z,1.80
2019-05-05T14:53:17.858Z,1.50
2019-05-05T14:55:49.584Z,1.53
2019-05-05T14:58:20.030Z,1.60
2019-05-05T15:00:50.510Z,1.47
2019-05-05T15:03:21.000Z,19.37
2019-05-05T15:06:03.875Z,3.97
2019-05-05T15:08:38.155Z,2.30
2019-05-05T15:11:10.282Z,2.40
2019-05-05T15:13:40.724Z,2.07
2019-05-05T15:16:11.358Z,2.40
2019-05-05T15:18:41.811Z,1.90
2019-05-05T15:21:12.420Z,1.93
2019-05-05T15:23:43.670Z,1.87
2019-05-05T15:26:14.346Z,2.20
2019-05-05T15:28:52.228Z,2.60
2019-05-05T15:31:17.928Z,3.23
2019-05-05T15:33:48.500Z,4.47
2019-05-05T15:36:18.978Z,2.80
2019-05-05T15:38:49.454Z,1.90
2019-05-05T15:41:20.013Z,1.87
2019-05-05T15:43:50.479Z,2.00
2019-05-05T15:46:20.983Z,3.67
2019-05-05T15:48:51.446Z,13.33
2019-05-05T15:51:23.589Z,2.80
2019-05-05T15:53:54.826Z,2.03
2019-05-05T15:56:25.327Z,2.30
2019-05-05T15:58:55.776Z,2.03
2019-05-05T16:01:26.272Z,1.83
2019-05-05T16:03:56.763Z,1.97
2019-05-05T16:06:27.231Z,2.23
2019-05-05T16:08:57.724Z,1.73
2019-05-05T16:11:28.163Z,2.10
2019-05-05T16:14:01.249Z,2.10
2019-05-05T16:16:51.541Z,2.13
2019-05-05T16:19:24.773Z,2.40
2019-05-05T16:21:57.453Z,1.93
2019-05-05T16:24:36.486Z,2.60
2019-05-05T16:27:18.698Z,1.70
2019-05-05T16:29:39.402Z,2.13
2019-05-05T16:32:19.602Z,1.97
2019-05-05T16:34:42.070Z,2.47
2019-05-05T16:37:14.331Z,2.17
2019-05-05T16:39:44.892Z,2.53
2019-05-05T16:42:15.436Z,15.17
2019-05-05T16:44:45.888Z,4.80
2019-05-05T16:47:16.365Z,13.13
2019-05-05T16:49:46.841Z,2.73
2019-05-05T16:52:18.944Z,2.77
2019-05-05T16:55:07.174Z,2.40
2019-05-05T16:57:37.618Z,2.90
2019-05-05T17:00:08.880Z,2.50
2019-05-05T17:02:39.364Z,2.00
2019-05-05T17:05:10.550Z,2.57
2019-05-05T17:07:41.078Z,2.60
2019-05-05T17:10:13.855Z,3.03
2019-05-05T17:12:44.651Z,13.70
2019-05-05T17:15:23.080Z,2.50
2019-05-05T17:17:55.222Z,2.00
2019-05-05T17:20:30.203Z,2.00
2019-05-05T17:23:05.423Z,1.80
2019-05-05T17:25:35.909Z,1.93
2019-05-05T17:28:07.270Z,2.60
2019-05-05T17:30:37.764Z,2.63
2019-05-05T17:33:08.305Z,2.03
2019-05-05T17:35:38.818Z,2.43
2019-05-05T17:38:10.928Z,2.23
2019-05-05T17:40:44.012Z,2.87
2019-05-05T17:43:25.737Z,2.60
2019-05-05T17:45:55.096Z,2.57
2019-05-05T17:48:44.184Z,2.70
2019-05-05T17:51:17.447Z,2.47
2019-05-05T17:53:56.404Z,2.80
2019-05-05T17:56:26.885Z,2.77
2019-05-05T17:58:57.390Z,2.47
2019-05-05T18:01:28.008Z,3.17
2019-05-05T18:03:58.515Z,2.30
2019-05-05T18:06:28.834Z,1.97
2019-05-05T18:09:17.315Z,4.77
2019-05-05T18:11:53.587Z,5.50
2019-05-05T18:14:28.470Z,2.20
2019-05-05T18:16:59.037Z,2.23
2019-05-05T18:19:29.499Z,2.83
2019-05-05T18:21:59.995Z,2.37
2019-05-05T18:24:30.499Z,2.63
2019-05-05T18:27:00.967Z,3.17
2019-05-05T18:29:31.430Z,2.10
2019-05-05T18:32:04.200Z,2.70
2019-05-05T18:34:34.942Z,2.47
2019-05-05T18:37:05.407Z,2.80
2019-05-05T18:39:35.899Z,2.57
2019-05-05T18:42:08.021Z,2.53
2019-05-05T18:44:40.155Z,4.90
2019-05-05T18:47:18.783Z,3.83
2019-05-05T18:49:49.517Z,3.10
2019-05-05T18:52:19.980Z,3.00
2019-05-05T18:54:50.471Z,3.40
2019-05-05T18:57:20.921Z,3.10
2019-05-05T18:59:51.402Z,2.90
2019-05-05T19:02:30.679Z,3.13
2019-05-05T19:05:19.200Z,3.40
2019-05-05T19:07:55.552Z,3.30
2019-05-05T19:10:24.237Z,3.20
2019-05-05T19:12:54.901Z,3.00
2019-05-05T19:15:25.470Z,3.17
2019-05-05T19:17:55.938Z,2.80
2019-05-05T19:20:30.981Z,3.30
2019-05-05T19:23:05.572Z,2.87
2019-05-05T19:25:35.828Z,3.10
2019-05-05T19:28:08.252Z,3.60
2019-05-05T19:30:38.836Z,3.33
2019-05-05T19:33:09.330Z,2.77
2019-05-05T19:35:43.972Z,3.60
2019-05-05T19:38:15.567Z,3.07
2019-05-05T19:40:44.180Z,3.50
2019-05-05T19:43:14.631Z,3.03
2019-05-05T19:45:45.080Z,2.67
2019-05-05T19:48:15.591Z,2.80
2019-05-05T19:50:50.518Z,3.17
2019-05-05T19:53:24.949Z,2.87
2019-05-05T19:55:56.557Z,3.60
2019-05-05T19:58:27.023Z,2.90
2019-05-05T20:00:59.187Z,3.40
2019-05-05T20:03:29.838Z,3.10
2019-05-05T20:06:00.442Z,3.33
2019-05-05T20:08:40.316Z,3.10
2019-05-05T20:11:04.851Z,2.80
2019-05-05T20:13:35.274Z,2.77
2019-05-05T20:16:22.618Z,3.60
2019-05-05T20:18:54.674Z,3.40
2019-05-05T20:21:25.488Z,3.80
2019-05-05T20:23:55.960Z,3.07
2019-05-05T20:26:26.441Z,3.10
2019-05-05T20:29:09.663Z,2.77
2019-05-05T20:31:29.159Z,2.20
2019-05-05T20:34:01.286Z,2.63
2019-05-05T20:36:36.117Z,2.40
2019-05-05T20:39:07.410Z,2.60
2019-05-05T20:41:37.900Z,2.50
2019-05-05T20:44:08.356Z,2.37
2019-05-05T20:46:38.843Z,2.40
2019-05-05T20:49:09.294Z,2.80
2019-05-05T20:51:39.778Z,3.00
2019-05-05T20:54:10.245Z,2.50
2019-05-05T20:56:41.065Z,2.40
2019-05-05T20:59:23.811Z,2.60
2019-05-05T21:01:43.964Z,2.17
2019-05-05T21:04:14.608Z,2.53
2019-05-05T21:06:45.103Z,2.13
2019-05-05T21:09:15.555Z,2.20
2019-05-05T21:11:46.045Z,2.83
2019-05-05T21:14:16.524Z,2.27
2019-05-05T21:16:47.004Z,2.47
2019-05-05T21:19:17.460Z,2.30
2019-05-05T21:21:49.593Z,2.17
2019-05-05T21:24:20.056Z,2.43
2019-05-05T21:26:52.191Z,2.60
2019-05-05T21:29:23.725Z,1.80
2019-05-05T21:31:54.943Z,2.00
2019-05-05T21:34:25.606Z,2.30
2019-05-05T21:36:56.113Z,2.03
2019-05-05T21:39:26.575Z,1.97
2019-05-05T21:41:57.059Z,1.73
2019-05-05T21:44:27.514Z,2.17
2019-05-05T21:46:59.307Z,2.13
2019-05-05T21:49:29.932Z,2.30
2019-05-05T21:52:05.230Z,1.80
2019-05-05T21:54:38.571Z,2.00
2019-05-05T21:57:14.039Z,2.20
2019-05-05T21:59:54.850Z,2.00
2019-05-05T22:02:17.743Z,2.10
2019-05-05T22:04:48.190Z,2.00
2019-05-05T22:07:18.733Z,2.30
2019-05-05T22:09:49.182Z,2.10
2019-05-05T22:12:19.674Z,1.93
2019-05-05T22:14:50.154Z,1.80
2019-05-05T22:17:20.647Z,2.07
2019-05-05T22:20:11.027Z,1.90
2019-05-05T22:22:44.967Z,1.60
2019-05-05T22:25:15.394Z,1.97
2019-05-05T22:27:45.873Z,2.10
2019-05-05T22:30:16.589Z,2.37
2019-05-05T22:32:47.090Z,2.00
2019-05-05T22:35:17.706Z,2.30
2019-05-05T22:37:48.163Z,2.13
2019-05-05T22:40:24.426Z,2.03
2019-05-05T22:42:54.758Z,2.20
2019-05-05T22:45:25.505Z,2.00
2019-05-05T22:47:56.017Z,2.70
2019-05-05T22:50:26.591Z,1.87
2019-05-05T22:52:57.014Z,2.30
2019-05-05T22:55:27.509Z,2.10
2019-05-05T22:57:57.983Z,2.20
2019-05-05T23:00:29.774Z,2.10
2019-05-05T23:03:18.452Z,2.30
2019-05-05T23:05:50.565Z,2.20
2019-05-05T23:08:21.014Z,2.00
2019-05-05T23:10:51.496Z,2.40
2019-05-05T23:13:21.954Z,2.30
2019-05-05T23:15:56.946Z,2.17
2019-05-05T23:18:28.362Z,2.63
2019-05-05T23:20:58.681Z,2.33
2019-05-05T23:23:46.840Z,2.40
2019-05-05T23:26:21.592Z,2.10
2019-05-05T23:28:53.714Z,2.57
2019-05-05T23:31:24.392Z,2.60
2019-05-05T23:33:54.993Z,2.70
2019-05-05T23:36:25.398Z,2.47
2019-05-05T23:38:55.885Z,2.50
2019-05-05T23:41:26.336Z,2.70
2019-05-05T23:43:56.819Z,2.60
2019-05-05T23:46:27.272Z,2.40
2019-05-05T23:48:57.761Z,2.83
2019-05-05T23:51:28.216Z,2.40
2019-05-05T23:53:58.694Z,2.80
2019-05-05T23:56:29.156Z,2.70
2019-05-05T23:58:59.632Z,2.57
